Time;durP1;ratioP1;P1;durP2;ratioP2;P2;SDS_P1;SDS_P2;PMS_P1;PMS_P2;Temp;Humidity;BMP_temperature;BMP_pressure;BME280_temperature;BME280_humidity;BME280_pressure;Samples;Min_cycle;Max_cycle;Signal;HPM_P1;HPM_P2
2021/01/19 00:02:18;;;;;;;;;;;;;;;7.50;100.00;99604.59;5111469;28;19924;-76
2021/01/19 00:04:45;;;;;;;;;;;;;;;7.46;100.00;99496.16;5113126;28;20458;-76
2021/01/19 00:07:11;;;;;;;;;;;;;;;7.49;100.00;99484.25;5113086;28;19931;-76
2021/01/19 00:09:37;;;;;;;;;;;;;;;7.49;100.00;99470.34;5113160;28;19924;-75
2021/01/19 00:12:04;;;;;;;;;;;;;;;7.49;100.00;99470.34;5113039;28;20019;-76
2021/01/19 00:14:31;;;;;;;;;;;;;;;7.55;100.00;99448.50;5113124;28;19924;-76
2021/01/19 00:16:57;;;;;;;;;;;;;;;7.55;100.00;99432.59;5116246;28;19930;-76
2021/01/19 00:19:24;;;;;;;;;;;;;;;7.56;100.00;99416.72;5116499;28;19993;-76
2021/01/19 00:21:50;;;;;;;;;;;;;;;7.61;100.00;99411.56;5116495;28;19988;-76
2021/01/19 00:24:16;;;;;;;;;;;;;;;7.66;100.00;99390.91;5116473;28;19923;-76
2021/01/19 00:26:43;;;;;;;;;;;;;;;7.67;100.00;99382.16;5115041;28;19923;-75
2021/01/19 00:29:09;;;;;;;;;;;;;;;7.74;100.00;99361.91;5115177;28;19924;-76
2021/01/19 00:31:36;;;;;;;;;;;;;;;7.77;100.00;99353.53;5116131;28;19927;-76
2021/01/19 00:34:02;;;;;;;;;;;;;;;7.74;100.00;99332.09;5116545;28;19970;-76
2021/01/19 00:36:29;;;;;;;;;;;;;;;7.72;100.00;99323.38;5116262;28;19956;-76
2021/01/19 00:38:55;;;;;;;;;;;;;;;7.76;100.00;99312.22;5116129;28;19976;-76
2021/01/19 00:41:22;;;;;;;;;;;;;;;7.78;100.00;99293.97;5116225;27;19924;-76
2021/01/19 00:43:48;;;;;;;;;;;;;;;7.79;100.00;99289.97;5114766;28;20370;-76
2021/01/19 00:46:15;;;;;;;;;;;;;;;7.78;100.00;99309.84;5114588;28;19985;-76
2021/01/19 00:48:42;;;;;;;;;;;;;;;7.87;100.00;99302.69;5114921;28;20015;-76
2021/01/19 00:51:09;;;;;;;;;;;;;;;7.91;100.00;99292.34;5115995;28;19973;-76
2021/01/19 00:53:35;;;;;;;;;;;;;;;7.98;100.00;99275.63;5114975;28;19962;-76
2021/01/19 00:56:02;;;;;;;;;;;;;;;8.01;100.00;99272.03;5115914;28;19945;-76
2021/01/19 00:58:29;;;;;;;;;;;;;;;7.95;100.00;99256.94;5114487;28;19968;-76
2021/01/19 01:00:56;;;;;;;;;;;;;;;8.02;100.00;99253.34;5114543;28;19955;-76
2021/01/19 01:03:23;;;;;;;;;;;;;;;8.05;100.00;99225.53;5115838;28;19924;-76
2021/01/19 01:05:50;;;;;;;;;;;;;;;8.06;100.00;99215.97;5115648;28;19974;-76
2021/01/19 01:08:17;;;;;;;;;;;;;;;8.06;100.00;99210.41;5115620;28;19931;-76
2021/01/19 01:10:43;;;;;;;;;;;;;;;7.99;100.00;99196.53;5115707;28;19924;-76
2021/01/19 01:13:10;;;;;;;;;;;;;;;8.05;100.00;99181.00;5114382;28;19935;-75
2021/01/19 01:15:37;;;;;;;;;;;;;;;8.02;100.00;99170.69;5115197;27;20041;-76
2021/01/19 01:18:04;;;;;;;;;;;;;;;7.99;100.00;99160.34;5114248;28;19932;-76
2021/01/19 01:20:30;;;;;;;;;;;;;;;8.02;100.00;99142.84;5115570;28;19973;-76
2021/01/19 01:22:58;;;;;;;;;;;;;;;8.02;100.00;99126.16;5114123;28;20226;-76
2021/01/19 01:25:24;;;;;;;;;;;;;;;7.99;100.00;99121.41;5114533;28;19923;-75
2021/01/19 01:27:51;;;;;;;;;;;;;;;8.06;100.00;99110.22;5114823;28;19924;-76
2021/01/19 01:30:18;;;;;;;;;;;;;;;8.07;100.00;99103.47;5113934;28;19924;-76
2021/01/19 01:32:48;;;;;;;;;;;;;;;8.13;100.00;99090.72;5115252;28;20370;-76
2021/01/19 01:35:15;;;;;;;;;;;;;;;8.18;100.00;99083.94;5114000;28;19924;-76
2021/01/19 01:37:45;;;;;;;;;;;;;;;8.19;100.00;99075.19;5115323;28;20009;-76
2021/01/19 01:40:15;;;;;;;;;;;;;;;8.21;100.00;99072.75;5115062;28;19930;-76
2021/01/19 01:42:41;;;;;;;;;;;;;;;8.27;100.00;99056.47;5114856;28;19924;-76
2021/01/19 01:45:08;;;;;;;;;;;;;;;8.22;100.00;99035.44;5096872;28;19923;-76
2021/01/19 01:47:35;;;;;;;;;;;;;;;8.24;100.00;99035.78;5114966;28;19930;-76
2021/01/19 01:50:01;;;;;;;;;;;;;;;8.30;100.00;99027.81;5113534;28;19985;-76
2021/01/19 01:52:29;;;;;;;;;;;;;;;8.29;100.00;99018.66;5114859;28;20018;-76
2021/01/19 01:54:55;;;;;;;;;;;;;;;8.31;100.00;99001.56;5114994;28;19923;-76
2021/01/19 01:57:22;;;;;;;;;;;;;;;8.28;100.00;98994.81;5114456;28;19924;-76
2021/01/19 01:59:50;;;;;;;;;;;;;;;8.30;100.00;98980.50;5113823;28;19931;-76
2021/01/19 02:02:16;;;;;;;;;;;;;;;8.33;100.00;98968.53;5113568;28;20028;-75
2021/01/19 02:04:43;;;;;;;;;;;;;;;8.33;100.00;98957.41;5114522;28;19969;-76
2021/01/19 02:07:28;;;;;;;;;;;;;;;8.32;100.00;98948.25;5114420;28;20336;-76
2021/01/19 02:10:07;;;;;;;;;;;;;;;8.29;100.00;98940.72;5114516;28;20026;-76
2021/01/19 02:12:40;;;;;;;;;;;;;;;8.31;100.00;98927.19;5114031;28;19974;-76
2021/01/19 02:15:07;;;;;;;;;;;;;;;8.30;100.00;98925.59;5114383;28;19927;-76
2021/01/19 02:17:33;;;;;;;;;;;;;;;8.29;100.00;98907.31;5114269;28;19924;-76
2021/01/19 02:20:00;;;;;;;;;;;;;;;8.21;100.00;98893.88;5096330;28;19935;-76
2021/01/19 02:22:44;;;;;;;;;;;;;;;8.20;100.00;98889.47;5114202;28;19985;-76
2021/01/19 02:25:30;;;;;;;;;;;;;;;8.16;100.00;98878.41;5114177;28;19962;-76
2021/01/19 02:28:07;;;;;;;;;;;;;;;8.15;100.00;98871.22;5113981;28;19924;-76
2021/01/19 02:30:52;;;;;;;;;;;;;;;8.18;100.00;98864.84;5114300;28;19923;-76
2021/01/19 02:33:37;;;;;;;;;;;;;;;8.17;100.00;98849.34;5114151;28;19924;-76
2021/01/19 02:36:12;;;;;;;;;;;;;;;8.14;100.00;98864.09;5112803;28;19928;-76
2021/01/19 02:38:48;;;;;;;;;;;;;;;8.15;100.00;98848.19;5112552;28;20377;-76
2021/01/19 02:41:17;;;;;;;;;;;;;;;8.14;100.00;98841.84;5113755;28;19931;-76
2021/01/19 02:43:46;;;;;;;;;;;;;;;8.16;100.00;98836.66;5113896;28;19977;-76
2021/01/19 02:46:13;;;;;;;;;;;;;;;8.15;100.00;98835.06;5113732;28;19924;-76
2021/01/19 02:48:39;;;;;;;;;;;;;;;8.10;100.00;98827.16;5114068;28;19931;-76
2021/01/19 02:51:06;;;;;;;;;;;;;;;8.06;100.00;98829.19;5113799;28;19924;-75
2021/01/19 02:53:32;;;;;;;;;;;;;;;8.04;100.00;98817.66;5112512;28;19924;-75
2021/01/19 02:56:02;;;;;;;;;;;;;;;8.07;100.00;98816.06;5112300;28;19930;-75
2021/01/19 02:58:28;;;;;;;;;;;;;;;8.08;100.00;98812.88;5112464;28;19939;-76
2021/01/19 03:00:55;;;;;;;;;;;;;;;8.05;100.00;98808.13;5113734;28;19928;-76
2021/01/19 03:03:22;;;;;;;;;;;;;;;8.06;100.00;98806.13;5113762;28;19951;-76
2021/01/19 03:05:48;;;;;;;;;;;;;;;8.05;100.00;98802.56;5113520;28;20439;-76
2021/01/19 03:08:17;;;;;;;;;;;;;;;8.05;100.00;98791.44;5113826;28;19924;-75
2021/01/19 03:10:43;;;;;;;;;;;;;;;7.96;100.00;98787.56;5113111;28;19923;-76
2021/01/19 03:13:13;;;;;;;;;;;;;;;7.98;100.00;98783.16;5112540;28;19924;-76
2021/01/19 03:15:40;;;;;;;;;;;;;;;8.01;100.00;98781.56;5113499;28;20390;-76
2021/01/19 03:18:07;;;;;;;;;;;;;;;7.98;100.00;98783.16;5113277;28;20410;-76
2021/01/19 03:20:34;;;;;;;;;;;;;;;7.99;100.00;98784.75;5112346;28;19924;-76
2021/01/19 03:23:00;;;;;;;;;;;;;;;7.95;100.00;98774.84;5112405;28;19928;-76
2021/01/19 03:25:27;;;;;;;;;;;;;;;7.97;100.00;98778.78;5111862;28;19931;-76
2021/01/19 03:27:54;;;;;;;;;;;;;;;7.93;100.00;98772.47;5112454;28;19924;-76
2021/01/19 03:30:20;;;;;;;;;;;;;;;7.97;100.00;98776.00;5113408;28;19924;-76
2021/01/19 03:32:47;;;;;;;;;;;;;;;7.94;100.00;98768.50;5112254;28;19928;-76
2021/01/19 03:35:13;;;;;;;;;;;;;;;7.96;100.00;98771.66;5113229;28;19924;-75
2021/01/19 03:37:39;;;;;;;;;;;;;;;7.94;100.00;98779.63;5112134;28;19924;-75
2021/01/19 03:40:06;;;;;;;;;;;;;;;7.88;100.00;98774.91;5111869;28;19954;-76
2021/01/19 03:42:33;;;;;;;;;;;;;;;7.88;100.00;98775.72;5113224;28;19930;-75
2021/01/19 03:44:59;;;;;;;;;;;;;;;7.90;100.00;98778.06;5113400;28;19928;-75
2021/01/19 03:47:26;;;;;;;;;;;;;;;7.89;100.00;98766.16;5113147;28;19932;-75
2021/01/19 03:49:52;;;;;;;;;;;;;;;7.90;100.00;98780.84;5097198;28;20015;-75
2021/01/19 03:52:20;;;;;;;;;;;;;;;7.93;100.00;98775.28;5117263;28;19969;-75
2021/01/19 03:54:47;;;;;;;;;;;;;;;7.87;100.00;98779.69;5116906;28;19924;-75
2021/01/19 03:57:14;;;;;;;;;;;;;;;7.89;100.00;98771.72;5117243;28;19923;-75
2021/01/19 03:59:40;;;;;;;;;;;;;;;7.87;100.00;98778.91;5117000;28;19935;-75
2021/01/19 04:02:07;;;;;;;;;;;;;;;7.87;100.00;98771.34;5115828;28;19931;-74
2021/01/19 04:04:33;;;;;;;;;;;;;;;7.82;100.00;98777.34;5117095;28;19949;-75
2021/01/19 04:07:00;;;;;;;;;;;;;;;7.78;100.00;98779.38;5115918;28;20320;-75
2021/01/19 04:09:26;;;;;;;;;;;;;;;7.74;100.00;98770.28;5116524;28;19955;-75
2021/01/19 04:11:53;;;;;;;;;;;;;;;7.75;100.00;98771.88;5116829;28;19931;-75
2021/01/19 04:14:19;;;;;;;;;;;;;;;7.75;100.00;98777.44;5116716;28;19923;-75
2021/01/19 04:16:45;;;;;;;;;;;;;;;7.70;100.00;98769.53;5116638;28;19924;-75
2021/01/19 04:19:12;;;;;;;;;;;;;;;7.65;100.00;98772.75;5116668;28;19973;-75
2021/01/19 04:21:38;;;;;;;;;;;;;;;7.66;100.00;98768.78;5115601;28;19954;-75
2021/01/19 04:24:05;;;;;;;;;;;;;;;7.67;100.00;98753.66;5116193;28;19924;-75
2021/01/19 04:26:32;;;;;;;;;;;;;;;7.67;100.00;98762.00;5116415;28;20022;-75
2021/01/19 04:28:58;;;;;;;;;;;;;;;7.66;100.00;98751.28;5115336;28;19924;-75
2021/01/19 04:31:25;;;;;;;;;;;;;;;7.63;100.00;98755.69;5116437;28;19923;-75
2021/01/19 04:33:51;;;;;;;;;;;;;;;7.65;100.00;98761.63;5116442;28;19924;-75
2021/01/19 04:36:17;;;;;;;;;;;;;;;7.65;100.00;98755.28;5116319;28;19931;-75
2021/01/19 04:38:44;;;;;;;;;;;;;;;7.62;100.00;98756.09;5114813;28;20010;-76
2021/01/19 04:41:11;;;;;;;;;;;;;;;7.62;100.00;98745.75;5116197;28;20263;-75
2021/01/19 04:43:37;;;;;;;;;;;;;;;7.64;100.00;98753.69;5114986;28;19954;-75
2021/01/19 04:46:05;;;;;;;;;;;;;;;7.59;100.00;98751.38;5114852;28;19924;-76
2021/01/19 04:48:32;;;;;;;;;;;;;;;7.58;100.00;98761.69;5114857;28;19931;-75
2021/01/19 04:50:58;;;;;;;;;;;;;;;7.54;100.00;98749.81;5116077;28;20371;-75
2021/01/19 04:53:26;;;;;;;;;;;;;;;7.55;100.00;98751.41;5114553;28;19930;-75
2021/01/19 04:55:58;;;;;;;;;;;;;;;7.56;100.00;98746.63;5115995;28;19924;-75
2021/01/19 04:58:28;;;;;;;;;;;;;;;7.55;100.00;98739.47;5116289;28;19950;-75
2021/01/19 05:01:03;;;;;;;;;;;;;;;7.53;100.00;98742.66;5115788;28;20293;-75
2021/01/19 05:03:37;;;;;;;;;;;;;;;7.49;100.00;98744.69;5115831;28;20329;-75
2021/01/19 05:06:14;;;;;;;;;;;;;;;7.48;100.00;98745.91;5114198;28;20371;-76
2021/01/19 05:08:53;;;;;;;;;;;;;;;7.47;100.00;98744.31;5114487;28;19996;-75
2021/01/19 05:11:21;;;;;;;;;;;;;;;7.45;100.00;98743.94;5114605;28;19924;-75
2021/01/19 05:13:53;;;;;;;;;;;;;;;7.47;100.00;98740.75;5114638;28;19947;-75
2021/01/19 05:16:25;;;;;;;;;;;;;;;7.49;100.00;98730.78;5115563;28;19996;-75
2021/01/19 05:18:52;;;;;;;;;;;;;;;7.50;100.00;98743.47;5114258;28;20030;-75
2021/01/19 05:21:18;;;;;;;;;;;;;;;7.48;100.00;98729.22;5115225;28;19959;-75
2021/01/19 05:23:45;;;;;;;;;;;;;;;7.47;100.00;98727.63;5115739;28;19969;-75
2021/01/19 05:26:14;;;;;;;;;;;;;;;7.45;100.00;98732.03;5114161;28;19923;-75
2021/01/19 05:28:45;;;;;;;;;;;;;;;7.45;100.00;98716.16;5115326;28;20375;-75
2021/01/19 05:31:14;;;;;;;;;;;;;;;7.40;100.00;98699.91;5115609;28;19928;-75
2021/01/19 05:33:56;;;;;;;;;;;;;;;7.40;100.00;98683.22;5115395;28;19970;-75
2021/01/19 05:36:23;;;;;;;;;;;;;;;7.43;100.00;98670.50;5115121;28;19998;-76
2021/01/19 05:38:50;;;;;;;;;;;;;;;7.42;100.00;98655.81;5115140;28;19928;-75
2021/01/19 05:41:30;;;;;;;;;;;;;;;7.43;100.00;98654.59;5115592;28;19931;-75
2021/01/19 05:44:07;;;;;;;;;;;;;;;7.42;100.00;98641.13;5114930;28;19923;-75
2021/01/19 05:46:33;;;;;;;;;;;;;;;7.40;100.00;98644.31;5115107;28;19924;-75
2021/01/19 05:49:01;;;;;;;;;;;;;;;7.41;100.00;98632.00;5113641;28;19924;-75
2021/01/19 05:51:31;;;;;;;;;;;;;;;7.41;100.00;98625.66;5113475;28;19952;-75
2021/01/19 05:53:59;;;;;;;;;;;;;;;7.42;100.00;98619.69;5114802;28;19931;-75
2021/01/19 05:56:26;;;;;;;;;;;;;;;7.39;100.00;98617.72;5114723;28;19924;-75
2021/01/19 05:58:53;;;;;;;;;;;;;;;7.39;100.00;98620.50;5113938;28;19931;-75
2021/01/19 06:01:30;;;;;;;;;;;;;;;7.33;100.00;98614.59;5096535;28;20310;-75
2021/01/19 06:03:58;;;;;;;;;;;;;;;7.38;100.00;98607.81;5114314;28;19943;-76
2021/01/19 06:06:26;;;;;;;;;;;;;;;7.36;100.00;98590.75;5113334;28;20008;-75
2021/01/19 06:09:00;;;;;;;;;;;;;;;7.37;100.00;98600.66;5113578;28;19962;-75
2021/01/19 06:11:27;;;;;;;;;;;;;;;7.35;100.00;98597.50;5096138;28;20089;-75
2021/01/19 06:13:54;;;;;;;;;;;;;;;7.35;100.00;98608.63;5113115;28;19930;-75
2021/01/19 06:16:22;;;;;;;;;;;;;;;7.34;100.00;98587.59;5114419;28;20416;-75
2021/01/19 06:18:48;;;;;;;;;;;;;;;7.33;100.00;98586.00;5112748;28;20263;-75
2021/01/19 06:21:25;;;;;;;;;;;;;;;7.32;100.00;98587.22;5114160;28;19930;-75
2021/01/19 06:23:51;;;;;;;;;;;;;;;7.31;100.00;98574.53;5114495;28;20366;-75
2021/01/19 06:26:18;;;;;;;;;;;;;;;7.27;100.00;98576.53;5114230;28;19931;-75
2021/01/19 06:28:44;;;;;;;;;;;;;;;7.30;100.00;98573.75;5114099;28;19924;-75
2021/01/19 06:31:12;;;;;;;;;;;;;;;7.31;100.00;98571.75;5114128;28;19928;-75
2021/01/19 06:33:40;;;;;;;;;;;;;;;7.31;100.00;98568.97;5113797;28;19923;-75
2021/01/19 06:36:07;;;;;;;;;;;;;;;7.30;100.00;98568.19;5096091;28;20379;-75
2021/01/19 06:38:34;;;;;;;;;;;;;;;7.33;100.00;98577.66;5112860;28;19923;-75
2021/01/19 06:41:01;;;;;;;;;;;;;;;7.30;100.00;98556.25;5112826;28;20386;-75
2021/01/19 06:43:34;;;;;;;;;;;;;;;7.29;100.00;98549.13;5112756;28;20379;-75
2021/01/19 06:46:06;;;;;;;;;;;;;;;7.27;100.00;98551.53;5112501;28;19935;-75
2021/01/19 06:48:33;;;;;;;;;;;;;;;7.26;100.00;98541.63;5113844;28;19984;-75
2021/01/19 06:51:02;;;;;;;;;;;;;;;7.27;100.00;98546.78;5113838;28;19930;-75
2021/01/19 06:53:33;;;;;;;;;;;;;;;7.26;100.00;98545.22;5113763;28;20321;-75
2021/01/19 06:56:07;;;;;;;;;;;;;;;7.25;100.00;98528.94;5112365;28;20030;-75
2021/01/19 06:58:50;;;;;;;;;;;;;;;7.22;100.00;98554.78;5114008;28;19928;-75
2021/01/19 07:01:18;;;;;;;;;;;;;;;7.25;100.00;98548.41;5113818;28;20282;-75
2021/01/19 07:03:45;;;;;;;;;;;;;;;7.23;100.00;98550.78;5113497;28;19923;-75
2021/01/19 07:06:13;;;;;;;;;;;;;;;7.22;100.00;98543.66;5113802;28;19997;-75
2021/01/19 07:08:39;;;;;;;;;;;;;;;7.26;100.00;98539.66;5114191;28;19988;-75
2021/01/19 07:11:08;;;;;;;;;;;;;;;7.26;100.00;98538.84;5112392;28;19963;-75
2021/01/19 07:13:41;;;;;;;;;;;;;;;7.22;100.00;98536.09;5113607;28;19930;-75
2021/01/19 07:16:08;;;;;;;;;;;;;;;7.23;100.00;98529.38;5111953;28;19973;-75
2021/01/19 07:18:42;;;;;;;;;;;;;;;7.23;100.00;98523.00;5113927;28;19930;-74
2021/01/19 07:21:09;;;;;;;;;;;;;;;7.23;100.00;98520.22;5114124;28;19923;-75
2021/01/19 07:23:48;;;;;;;;;;;;;;;7.25;100.00;98523.38;5096253;28;20042;-75
2021/01/19 07:26:18;;;;;;;;;;;;;;;7.24;100.00;98514.25;5117022;28;20040;-73
2021/01/19 07:28:45;;;;;;;;;;;;;;;7.19;100.00;98523.03;5117421;28;20370;-73
2021/01/19 07:31:16;;;;;;;;;;;;;;;7.19;100.00;98505.59;5117245;28;19924;-73
2021/01/19 07:33:44;;;;;;;;;;;;;;;7.21;100.00;98498.41;5116075;28;19931;-73
2021/01/19 07:36:15;;;;;;;;;;;;;;;7.21;100.00;98495.63;5116283;28;19923;-73
2021/01/19 07:38:41;;;;;;;;;;;;;;;7.22;100.00;98493.66;5117501;28;19928;-73
2021/01/19 07:41:08;;;;;;;;;;;;;;;7.23;100.00;98496.03;5117395;28;20389;-73
2021/01/19 07:43:35;;;;;;;;;;;;;;;7.24;100.00;98502.34;5116152;28;20298;-73
2021/01/19 07:46:06;;;;;;;;;;;;;;;7.25;100.00;98504.72;5117061;28;19928;-73
2021/01/19 07:48:37;;;;;;;;;;;;;;;7.22;100.00;98508.31;5117163;28;19923;-73
2021/01/19 07:51:13;;;;;;;;;;;;;;;7.21;100.00;98495.63;5115990;28;20369;-73
2021/01/19 07:53:50;;;;;;;;;;;;;;;7.22;100.00;98482.53;5117091;28;19993;-73
2021/01/19 07:56:27;;;;;;;;;;;;;;;7.26;100.00;98484.06;5117163;28;19993;-73
2021/01/19 07:58:54;;;;;;;;;;;;;;;7.26;100.00;98486.06;5115806;28;20034;-73
2021/01/19 08:01:26;;;;;;;;;;;;;;;7.21;100.00;98489.28;5115654;28;20406;-73
2021/01/19 08:03:53;;;;;;;;;;;;;;;7.26;100.00;98483.28;5116886;28;19928;-73
2021/01/19 08:06:30;;;;;;;;;;;;;;;7.24;100.00;98486.47;5116930;28;19924;-73
2021/01/19 08:09:07;;;;;;;;;;;;;;;7.22;100.00;98468.66;5116950;28;19923;-73
2021/01/19 08:11:34;;;;;;;;;;;;;;;7.23;100.00;98478.56;5115531;28;19931;-73
2021/01/19 08:14:03;;;;;;;;;;;;;;;7.24;100.00;98469.81;5116599;28;19928;-74
2021/01/19 08:16:32;;;;;;;;;;;;;;;7.24;100.00;98466.22;5115755;28;20298;-74
2021/01/19 08:19:06;;;;;;;;;;;;;;;7.22;100.00;98465.88;5115262;28;19931;-74
2021/01/19 08:21:33;;;;;;;;;;;;;;;7.22;100.00;98461.09;5116586;27;19924;-74
2021/01/19 08:24:02;;;;;;;;;;;;;;;7.18;100.00;98473.44;5116470;28;19923;-74
2021/01/19 08:26:29;;;;;;;;;;;;;;;7.19;100.00;98461.91;5115160;28;20035;-74
2021/01/19 08:28:55;;;;;;;;;;;;;;;7.19;100.00;98455.59;5116142;27;19930;-74
2021/01/19 08:31:26;;;;;;;;;;;;;;;7.24;100.00;98446.78;5116530;28;19924;-74
2021/01/19 08:33:54;;;;;;;;;;;;;;;7.17;100.00;98444.09;5116377;28;19970;-74
2021/01/19 08:36:22;;;;;;;;;;;;;;;7.26;100.00;98439.63;5115688;28;19924;-75
2021/01/19 08:38:48;;;;;;;;;;;;;;;7.31;100.00;98441.91;5116368;28;19924;-75
2021/01/19 08:41:16;;;;;;;;;;;;;;;7.31;100.00;98436.34;5114956;28;20294;-74
2021/01/19 08:43:57;;;;;;;;;;;;;;;7.34;100.00;98423.63;5115779;28;20378;-76
2021/01/19 08:46:25;;;;;;;;;;;;;;;7.32;100.00;98424.06;5115967;28;19928;-77
2021/01/19 08:48:52;;;;;;;;;;;;;;;7.31;100.00;98430.78;5116112;27;20309;-75
2021/01/19 08:51:25;;;;;;;;;;;;;;;7.32;100.00;98439.94;5116076;28;19953;-76
2021/01/19 08:53:52;;;;;;;;;;;;;;;7.34;100.00;98441.09;5116263;28;19927;-76
2021/01/19 08:56:20;;;;;;;;;;;;;;;7.41;100.00;98456.88;5116085;28;19923;-76
2021/01/19 08:58:46;;;;;;;;;;;;;;;7.38;100.00;98452.16;5115762;28;19938;-75
2021/01/19 09:01:13;;;;;;;;;;;;;;;7.38;100.00;98445.84;5115833;28;20382;-75
2021/01/19 09:03:40;;;;;;;;;;;;;;;7.38;100.00;98435.47;5114799;28;19927;-76
2021/01/19 09:06:12;;;;;;;;;;;;;;;7.49;100.00;98436.13;5115809;28;19977;-75
2021/01/19 09:08:41;;;;;;;;;;;;;;;7.26;100.00;98422.16;5115777;28;19927;-75
2021/01/19 09:11:08;;;;;;;;;;;;;;;7.30;100.00;98412.56;5115703;28;19924;-76
2021/01/19 09:13:44;;;;;;;;;;;;;;;7.41;100.00;98411.66;5115549;28;19984;-75
2021/01/19 09:16:13;;;;;;;;;;;;;;;7.41;100.00;98412.41;5115782;28;19930;-75
2021/01/19 09:18:39;;;;;;;;;;;;;;;7.47;100.00;98388.50;5115355;28;19923;-75
2021/01/19 09:21:10;;;;;;;;;;;;;;;7.51;100.00;98388.47;5115386;28;19928;-74
2021/01/19 09:23:37;;;;;;;;;;;;;;;7.53;100.00;98372.16;5113431;28;19924;-74
2021/01/19 09:26:05;;;;;;;;;;;;;;;7.52;100.00;98360.25;5113653;28;19931;-74
2021/01/19 09:28:32;;;;;;;;;;;;;;;7.59;100.00;98365.69;5114720;28;19927;-74
2021/01/19 09:31:09;;;;;;;;;;;;;;;7.57;100.00;98362.56;5114198;28;19977;-75
2021/01/19 09:33:54;;;;;;;;;;;;;;;7.53;100.00;98347.91;5105450;28;19931;-76
2021/01/19 09:36:21;;;;;;;;;;;;;;;7.57;100.00;98345.09;5109227;28;19928;-76
2021/01/19 09:38:49;;;;;;;;;;;;;;;7.61;100.00;98341.03;5109154;28;20061;-76
2021/01/19 09:41:17;;;;;;;;;;;;;;;7.66;100.00;98343.34;5110610;28;19928;-76
2021/01/19 09:43:54;;;;;;;;;;;;;;;7.68;100.00;98324.22;5110031;28;19928;-75
2021/01/19 09:46:22;;;;;;;;;;;;;;;7.75;100.00;98326.91;5109747;28;19931;-75
2021/01/19 09:48:50;;;;;;;;;;;;;;;7.77;100.00;98323.72;5110909;28;19923;-76
2021/01/19 09:51:23;;;;;;;;;;;;;;;7.88;100.00;98313.97;5109475;28;19963;-75
2021/01/19 09:53:53;;;;;;;;;;;;;;;7.98;100.00;98307.44;5110846;28;20019;-75
2021/01/19 09:56:20;;;;;;;;;;;;;;;8.16;100.00;98307.91;5108348;28;19938;-81
2021/01/19 09:58:48;;;;;;;;;;;;;;;8.26;100.00;98279.13;5109124;28;20263;-77
2021/01/19 10:01:24;;;;;;;;;;;;;;;8.44;100.00;98301.03;5109545;28;20059;-77
2021/01/19 10:03:51;;;;;;;;;;;;;;;8.52;100.00;98292.13;5108979;28;19928;-76
2021/01/19 10:06:19;;;;;;;;;;;;;;;8.61;100.00;98278.44;5109514;28;19927;-77
2021/01/19 10:08:50;;;;;;;;;;;;;;;8.65;100.00;98276.34;5109081;28;19928;-75
2021/01/19 10:11:37;;;;;;;;;;;;;;;8.72;100.00;98267.84;5106921;28;20378;-75
2021/01/19 10:14:11;;;;;;;;;;;;;;;8.77;100.00;98277.69;5107717;28;19932;-75
2021/01/19 10:16:44;;;;;;;;;;;;;;;8.81;100.00;98270.84;5107038;28;20329;-75
2021/01/19 10:19:17;;;;;;;;;;;;;;;8.82;100.00;98274.41;5106484;28;19928;-74
2021/01/19 10:21:47;;;;;;;;;;;;;;;8.80;100.00;98271.25;5108542;28;19923;-74
2021/01/19 10:24:17;;;;;;;;;;;;;;;8.79;100.00;98283.63;5104769;28;19992;-76
2021/01/19 10:27:04;;;;;;;;;;;;;;;8.77;100.00;98264.53;5108041;28;19924;-75
2021/01/19 10:29:35;;;;;;;;;;;;;;;8.83;100.00;98251.69;5107558;28;20454;-77
2021/01/19 10:32:04;;;;;;;;;;;;;;;8.84;100.00;98269.19;5107508;28;19935;-77
2021/01/19 10:34:35;;;;;;;;;;;;;;;8.86;100.00;98273.09;5109003;28;19977;-75
2021/01/19 10:37:02;;;;;;;;;;;;;;;8.89;100.00;98266.66;5108153;28;20275;-75
2021/01/19 10:39:30;;;;;;;;;;;;;;;8.96;100.00;98265.75;5090617;28;19929;-75
2021/01/19 10:41:58;;;;;;;;;;;;;;;8.98;100.00;98275.22;5100474;28;19927;-75
2021/01/19 10:44:25;;;;;;;;;;;;;;;8.97;100.00;98273.66;5108695;28;19923;-75
2021/01/19 10:46:59;;;;;;;;;;;;;;;8.97;100.00;98276.44;5105986;28;20030;-75
2021/01/19 10:49:29;;;;;;;;;;;;;;;9.00;100.00;98294.31;5108173;28;20456;-75
2021/01/19 10:51:56;;;;;;;;;;;;;;;9.00;100.00;98292.31;5107633;28;19931;-75
2021/01/19 10:54:24;;;;;;;;;;;;;;;9.02;100.00;98291.88;5107367;28;20020;-75
2021/01/19 10:57:01;;;;;;;;;;;;;;;8.99;100.00;98296.31;5107013;28;19924;-75
2021/01/19 10:59:28;;;;;;;;;;;;;;;8.98;100.00;98303.09;5106653;28;19973;-75
2021/01/19 11:01:54;;;;;;;;;;;;;;;8.91;100.00;98311.63;5108811;28;20347;-74
2021/01/19 11:04:21;;;;;;;;;;;;;;;8.93;100.00;98322.31;5108704;28;19927;-75
2021/01/19 11:06:47;;;;;;;;;;;;;;;8.91;100.00;98314.41;5106314;28;19947;-76
2021/01/19 11:09:14;;;;;;;;;;;;;;;8.94;100.00;98321.91;5102067;28;19924;-76
2021/01/19 11:11:41;;;;;;;;;;;;;;;9.00;100.00;98336.88;5107896;28;19923;-74
2021/01/19 11:14:08;;;;;;;;;;;;;;;8.98;100.00;98330.94;5104973;28;20319;-75
2021/01/19 11:16:37;;;;;;;;;;;;;;;8.97;100.00;98337.75;5108564;28;19923;-76
2021/01/19 11:19:05;;;;;;;;;;;;;;;8.97;100.00;98329.38;5106161;28;20390;-75
2021/01/19 11:21:32;;;;;;;;;;;;;;;8.96;100.00;98327.84;5106406;28;20371;-75
2021/01/19 11:23:59;;;;;;;;;;;;;;;8.97;100.00;98337.75;5104409;28;19946;-75
2021/01/19 11:26:26;;;;;;;;;;;;;;;8.99;100.00;98342.91;5105853;28;19927;-75
2021/01/19 11:28:53;;;;;;;;;;;;;;;9.07;100.00;98356.22;5107758;28;19927;-74
2021/01/19 11:31:23;;;;;;;;;;;;;;;9.13;100.00;98360.09;5105018;28;20030;-75
2021/01/19 11:33:50;;;;;;;;;;;;;;;9.18;100.00;98369.19;5106154;28;19924;-77
2021/01/19 11:36:17;;;;;;;;;;;;;;;9.24;100.00;98367.44;5106408;28;20386;-77
2021/01/19 11:38:44;;;;;;;;;;;;;;;9.23;100.00;98380.59;5106661;28;19977;-77
2021/01/19 11:41:13;;;;;;;;;;;;;;;9.21;100.00;98376.69;5106507;28;19931;-75
2021/01/19 11:43:40;;;;;;;;;;;;;;;9.31;100.00;98386.81;5107802;28;20256;-77
2021/01/19 11:46:06;;;;;;;;;;;;;;;9.28;100.00;98398.81;5090557;28;20279;-73
2021/01/19 11:48:33;;;;;;;;;;;;;;;9.27;100.00;98408.41;5103140;28;20039;-72
2021/01/19 11:51:00;;;;;;;;;;;;;;;9.33;100.00;98412.25;5105825;28;20061;-75
2021/01/19 11:53:26;;;;;;;;;;;;;;;9.31;100.00;98428.63;5103209;28;19928;-72
2021/01/19 11:55:53;;;;;;;;;;;;;;;9.28;100.00;98437.84;5107507;28;20081;-74
2021/01/19 11:58:21;;;;;;;;;;;;;;;9.26;100.00;98468.13;5107903;28;19923;-72
2021/01/19 12:00:48;;;;;;;;;;;;;;;9.26;100.00;98480.09;5107601;28;20761;-73
2021/01/19 12:03:18;;;;;;;;;;;;;;;9.29;100.00;98489.56;5105734;28;20298;-73
2021/01/19 12:05:45;;;;;;;;;;;;;;;9.26;100.00;98496.81;5107817;28;19944;-75
2021/01/19 12:08:13;;;;;;;;;;;;;;;9.24;100.00;98509.63;5107544;28;20174;-75
2021/01/19 12:10:43;;;;;;;;;;;;;;;9.19;100.00;98522.81;5108791;28;19931;-73
2021/01/19 12:13:12;;;;;;;;;;;;;;;9.18;100.00;98529.59;5092915;28;20434;-74
2021/01/19 12:15:42;;;;;;;;;;;;;;;9.24;100.00;98545.84;5110736;28;19973;-74
2021/01/19 12:18:09;;;;;;;;;;;;;;;9.18;100.00;98549.13;5110931;28;19994;-75
2021/01/19 12:20:36;;;;;;;;;;;;;;;9.25;100.00;98553.78;5109283;28;19924;-73
2021/01/19 12:23:04;;;;;;;;;;;;;;;9.25;100.00;98550.19;5110051;28;19936;-75
2021/01/19 12:25:31;;;;;;;;;;;;;;;9.18;100.00;98546.34;5110449;28;19954;-73
2021/01/19 12:28:01;;;;;;;;;;;;;;;9.16;100.00;98557.09;5110573;28;19924;-81
2021/01/19 12:30:28;;;;;;;;;;;;;;;9.26;100.00;98557.34;5111537;28;20408;-77
2021/01/19 12:32:55;;;;;;;;;;;;;;;9.31;100.00;98559.66;5108788;28;19959;-76
2021/01/19 12:35:21;;;;;;;;;;;;;;;9.28;100.00;98560.50;5108594;28;19924;-78
2021/01/19 12:37:48;;;;;;;;;;;;;;;9.32;100.00;98566.78;5111323;28;20382;-77
2021/01/19 12:40:16;;;;;;;;;;;;;;;9.26;100.00;98599.16;5110424;28;20440;-79
2021/01/19 12:42:42;;;;;;;;;;;;;;;9.30;100.00;98613.84;5109080;28;20442;-79
2021/01/19 12:45:09;;;;;;;;;;;;;;;9.33;100.00;98619.31;5110939;28;20411;-79
2021/01/19 12:47:36;;;;;;;;;;;;;;;9.25;100.00;98642.19;5110249;28;20373;-78
2021/01/19 12:50:03;;;;;;;;;;;;;;;9.19;100.00;98658.63;5092177;28;19935;-79
2021/01/19 12:52:30;;;;;;;;;;;;;;;9.16;100.00;98665.81;5089087;28;20298;-79
2021/01/19 12:54:57;;;;;;;;;;;;;;;9.19;100.00;98675.34;5099226;28;19984;-78
2021/01/19 12:57:23;;;;;;;;;;;;;;;9.19;100.00;98680.91;5110678;28;19928;-79